createdAt,value
2023-04-23T00:02:00.493Z,13.40
2023-04-23T00:04:33.807Z,14.60
2023-04-23T00:07:03.516Z,13.20
2023-04-23T00:09:32.479Z,13.90
2023-04-23T00:12:00.981Z,13.10
2023-04-23T00:14:29.487Z,12.90
2023-04-23T00:16:57.856Z,13.00
2023-04-23T00:19:25.767Z,12.90
2023-04-23T00:21:54.951Z,12.90
2023-04-23T00:24:22.785Z,13.20
2023-04-23T00:26:52.875Z,14.30
2023-04-23T00:29:20.732Z,12.60
2023-04-23T00:31:48.819Z,14.20
2023-04-23T00:34:16.769Z,14.10
2023-04-23T00:36:44.645Z,12.40
2023-04-23T00:39:13.925Z,12.30
2023-04-23T00:41:42.501Z,12.50
2023-04-23T00:44:10.408Z,12.60
2023-04-23T00:46:38.801Z,13.00
2023-04-23T00:49:06.933Z,14.20
2023-04-23T00:51:34.860Z,12.50
2023-04-23T00:54:03.089Z,12.40
2023-04-23T00:56:32.380Z,13.20
2023-04-23T00:59:02.563Z,12.40
2023-04-23T01:01:30.619Z,14.00
2023-04-23T01:03:59.502Z,13.20
2023-04-23T01:06:28.641Z,13.20
2023-04-23T01:08:56.852Z,13.80
2023-04-23T01:11:25.129Z,13.30
2023-04-23T01:13:54.602Z,12.70
2023-04-23T01:16:22.515Z,12.30
2023-04-23T01:18:50.382Z,14.20
2023-04-23T01:21:19.107Z,14.00
2023-04-23T01:23:48.358Z,12.50
2023-04-23T01:26:16.555Z,13.00
2023-04-23T01:28:45.715Z,12.30
2023-04-23T01:31:14.884Z,12.50
2023-04-23T01:33:43.081Z,12.40
2023-04-23T01:36:11.427Z,12.20
2023-04-23T01:38:39.943Z,13.60
2023-04-23T01:41:09.226Z,12.10
2023-04-23T01:43:37.671Z,12.90
2023-04-23T01:46:06.028Z,12.10
2023-04-23T01:48:33.966Z,12.10
2023-04-23T01:51:02.304Z,12.00
2023-04-23T01:53:30.183Z,12.80
2023-04-23T01:55:58.670Z,12.20
2023-04-23T01:58:27.919Z,12.70
2023-04-23T02:00:56.144Z,12.00
2023-04-23T02:03:24.259Z,11.80
2023-04-23T02:05:54.510Z,11.60
2023-04-23T02:08:22.579Z,11.50
2023-04-23T02:10:50.518Z,11.60
2023-04-23T02:13:18.479Z,11.80
2023-04-23T02:15:47.747Z,11.50
2023-04-23T02:18:15.676Z,11.90
2023-04-23T02:20:43.827Z,12.60
2023-04-23T02:23:12.078Z,11.30
2023-04-23T02:25:40.058Z,11.70
2023-04-23T02:28:08.319Z,13.40
2023-04-23T02:30:36.536Z,11.40
2023-04-23T02:33:06.006Z,11.60
2023-04-23T02:35:33.865Z,11.30
2023-04-23T02:38:01.716Z,11.20
2023-04-23T02:40:29.794Z,11.40
2023-04-23T02:42:57.632Z,11.50
2023-04-23T02:45:25.736Z,11.40
2023-04-23T02:47:54.334Z,11.20
2023-04-23T02:50:23.839Z,11.10
2023-04-23T02:52:51.739Z,11.10
2023-04-23T02:55:19.599Z,10.90
2023-04-23T02:57:47.501Z,10.90
2023-04-23T03:00:16.936Z,10.90
2023-04-23T03:02:45.032Z,11.00
2023-04-23T03:05:13.170Z,10.40
2023-04-23T03:07:42.372Z,10.70
2023-04-23T03:10:10.971Z,10.70
2023-04-23T03:12:39.145Z,10.90
2023-04-23T03:15:08.055Z,10.50
2023-04-23T03:17:36.000Z,10.80
2023-04-23T03:20:05.584Z,11.30
2023-04-23T03:22:33.486Z,10.80
2023-04-23T03:25:03.418Z,10.40
2023-04-23T03:27:31.515Z,12.90
2023-04-23T03:29:59.625Z,10.30
2023-04-23T03:32:27.551Z,10.20
2023-04-23T03:34:55.388Z,10.50
2023-04-23T03:37:23.302Z,10.30
2023-04-23T03:39:51.236Z,10.30
2023-04-23T03:42:20.511Z,11.30
2023-04-23T03:44:48.396Z,10.70
2023-04-23T03:47:16.383Z,10.30
2023-04-23T03:49:44.935Z,10.30
2023-04-23T03:52:12.836Z,11.40
2023-04-23T03:54:41.249Z,10.30
2023-04-23T03:57:11.175Z,10.30
2023-04-23T03:59:40.708Z,10.20
2023-04-23T04:02:08.731Z,11.00
2023-04-23T04:04:37.739Z,10.40
2023-04-23T04:07:07.562Z,10.10
2023-04-23T04:09:35.502Z,10.30
2023-04-23T04:12:04.062Z,10.30
2023-04-23T04:14:33.000Z,10.10
2023-04-23T04:17:02.265Z,9.90
2023-04-23T04:19:30.231Z,11.70
2023-04-23T04:21:58.188Z,9.60
2023-04-23T04:24:26.373Z,9.60
2023-04-23T04:26:54.291Z,9.40
2023-04-23T04:29:23.866Z,9.70
2023-04-23T04:31:52.054Z,9.80
2023-04-23T04:34:21.424Z,11.60
2023-04-23T04:36:49.389Z,12.80
2023-04-23T04:39:17.882Z,9.60
2023-04-23T04:41:45.844Z,9.80
2023-04-23T04:44:14.252Z,9.50
2023-04-23T04:46:42.958Z,9.70
2023-04-23T04:49:11.521Z,11.10
2023-04-23T04:51:42.153Z,9.70
2023-04-23T04:54:10.079Z,9.70
2023-04-23T04:56:37.999Z,11.00
2023-04-23T04:59:05.972Z,11.70
2023-04-23T05:01:35.034Z,9.70
2023-04-23T05:04:03.883Z,10.10
2023-04-23T05:06:32.283Z,11.40
2023-04-23T05:09:01.508Z,10.00
2023-04-23T05:11:29.442Z,10.10
2023-04-23T05:13:58.315Z,10.20
2023-04-23T05:16:26.180Z,9.80
2023-04-23T05:18:54.078Z,9.90
2023-04-23T05:21:22.054Z,11.20
2023-04-23T05:23:49.975Z,10.20
2023-04-23T05:26:19.232Z,9.90
2023-04-23T05:28:47.111Z,11.40
2023-04-23T05:31:15.121Z,10.50
2023-04-23T05:33:50.081Z,10.20
2023-04-23T05:36:19.105Z,10.10
2023-04-23T05:38:47.552Z,10.10
2023-04-23T05:41:16.228Z,10.00
2023-04-23T05:43:45.685Z,10.30
2023-04-23T05:46:13.597Z,10.30
2023-04-23T05:48:41.460Z,10.30
2023-04-23T05:51:10.239Z,10.40
2023-04-23T05:53:38.103Z,10.50
2023-04-23T05:56:06.501Z,10.10
2023-04-23T05:58:35.511Z,10.70
2023-04-23T06:01:04.800Z,10.50
2023-04-23T06:03:32.924Z,10.60
2023-04-23T06:06:01.136Z,10.70
2023-04-23T06:08:29.394Z,10.90
2023-04-23T06:10:57.329Z,13.00
2023-04-23T06:13:25.699Z,11.00
2023-04-23T06:15:53.609Z,11.40
2023-04-23T06:18:22.838Z,12.00
2023-04-23T06:20:51.496Z,11.50
2023-04-23T06:23:19.416Z,11.70
2023-04-23T06:25:47.345Z,11.60
2023-04-23T06:28:16.156Z,13.50
2023-04-23T06:30:44.137Z,13.40
2023-04-23T06:33:12.416Z,12.70
2023-04-23T06:35:41.769Z,11.50
2023-04-23T06:38:09.632Z,13.10
2023-04-23T06:40:37.571Z,12.00
2023-04-23T06:43:05.547Z,12.10
2023-04-23T06:45:34.036Z,14.30
2023-04-23T06:48:03.867Z,13.80
2023-04-23T06:50:32.052Z,14.20
2023-04-23T06:53:01.618Z,13.50
2023-04-23T06:55:29.560Z,13.40
2023-04-23T06:57:57.815Z,13.50
2023-04-23T07:00:26.269Z,13.80
2023-04-23T07:02:54.274Z,13.10
2023-04-23T07:05:22.263Z,13.20
2023-04-23T07:07:50.254Z,13.50
2023-04-23T07:10:19.897Z,13.20
2023-04-23T07:12:47.798Z,14.50
2023-04-23T07:15:15.789Z,15.70
2023-04-23T07:17:53.782Z,14.60
2023-04-23T07:20:21.637Z,14.50
2023-04-23T07:22:49.544Z,14.70
2023-04-23T07:25:18.798Z,15.40
2023-04-23T07:27:46.658Z,15.40
2023-04-23T07:30:15.146Z,16.00
2023-04-23T07:32:43.385Z,16.50
2023-04-23T07:35:11.775Z,17.10
2023-04-23T07:37:39.667Z,17.20
2023-04-23T07:40:09.012Z,17.70
2023-04-23T07:42:38.192Z,17.00
2023-04-23T07:45:07.215Z,17.10
2023-04-23T07:47:35.145Z,16.70
2023-04-23T07:50:03.008Z,16.40
2023-04-23T07:52:30.876Z,16.50
2023-04-23T07:54:58.808Z,17.40
2023-04-23T07:57:26.810Z,18.00
2023-04-23T07:59:56.020Z,17.80
2023-04-23T08:02:26.470Z,17.90
2023-04-23T08:04:54.804Z,17.80
2023-04-23T08:07:24.055Z,17.80
2023-04-23T08:09:52.080Z,18.20
2023-04-23T08:12:21.114Z,18.40
2023-04-23T08:14:50.822Z,18.70
2023-04-23T08:17:20.050Z,18.80
2023-04-23T08:19:47.903Z,19.10
2023-04-23T08:22:16.246Z,18.60
2023-04-23T08:24:44.544Z,19.00
2023-04-23T08:27:12.404Z,19.40
2023-04-23T08:29:40.702Z,19.40
2023-04-23T08:32:08.763Z,19.70
2023-04-23T08:34:38.115Z,20.10
2023-04-23T08:37:08.488Z,19.90
2023-04-23T08:39:38.972Z,20.50
2023-04-23T08:42:16.456Z,20.10
2023-04-23T08:44:45.280Z,20.20
2023-04-23T08:47:15.999Z,20.60
2023-04-23T08:49:47.541Z,20.80
2023-04-23T08:52:18.621Z,21.00
2023-04-23T08:54:50.698Z,20.90
2023-04-23T08:57:19.085Z,21.40
2023-04-23T08:59:48.119Z,21.60
2023-04-23T09:02:17.880Z,21.20
2023-04-23T09:04:50.788Z,21.40
2023-04-23T09:07:20.093Z,21.40
2023-04-23T09:09:48.463Z,21.90
2023-04-23T09:12:16.568Z,21.40
2023-04-23T09:14:44.796Z,21.60
2023-04-23T09:17:13.114Z,21.60
2023-04-23T09:19:41.345Z,21.70
2023-04-23T09:22:10.992Z,22.00
2023-04-23T09:24:39.001Z,22.20
2023-04-23T09:27:07.051Z,21.80
2023-04-23T09:29:34.935Z,22.00
2023-04-23T09:32:08.673Z,21.80
2023-04-23T09:34:37.736Z,21.90
2023-04-23T09:37:07.824Z,22.20
2023-04-23T09:39:37.077Z,22.30
2023-04-23T09:42:08.398Z,22.40
2023-04-23T09:44:36.409Z,22.60
2023-04-23T09:47:09.600Z,22.70
2023-04-23T09:49:47.335Z,22.70
2023-04-23T09:52:15.207Z,22.60
2023-04-23T09:54:46.354Z,22.80
2023-04-23T09:57:14.463Z,22.70
2023-04-23T09:59:48.997Z,23.00
2023-04-23T10:02:19.914Z,23.40
2023-04-23T10:04:58.411Z,23.20
2023-04-23T10:07:32.477Z,23.30
2023-04-23T10:10:01.685Z,23.60
2023-04-23T10:12:46.662Z,23.70
2023-04-23T10:15:17.719Z,23.50
2023-04-23T10:17:47.627Z,23.40
2023-04-23T10:20:17.333Z,23.30
2023-04-23T10:22:46.572Z,23.80
2023-04-23T10:25:16.805Z,23.90
2023-04-23T10:27:53.807Z,23.80
2023-04-23T10:30:23.160Z,24.30
2023-04-23T10:32:52.330Z,23.60
2023-04-23T10:35:22.303Z,23.30
2023-04-23T10:37:51.792Z,23.40
2023-04-23T10:40:27.435Z,23.60
2023-04-23T10:42:55.544Z,23.70
2023-04-23T10:45:25.226Z,23.50
2023-04-23T10:47:56.048Z,23.40
2023-04-23T10:50:25.792Z,23.20
2023-04-23T10:52:54.554Z,23.00
2023-04-23T10:55:26.339Z,23.10
2023-04-23T10:58:01.691Z,22.80
2023-04-23T11:00:42.894Z,23.00
2023-04-23T11:03:30.877Z,22.90
2023-04-23T11:05:59.316Z,22.70
2023-04-23T11:08:27.133Z,22.70
2023-04-23T11:11:00.787Z,22.60
2023-04-23T11:13:30.105Z,22.90
2023-04-23T11:16:18.466Z,22.70
2023-04-23T11:19:05.092Z,22.50
2023-04-23T11:22:01.495Z,22.60
2023-04-23T11:24:31.322Z,22.40
2023-04-23T11:27:01.205Z,22.90
2023-04-23T11:29:29.576Z,22.80
2023-04-23T11:32:03.070Z,22.50
2023-04-23T11:34:33.157Z,22.00
2023-04-23T11:37:02.158Z,22.10
2023-04-23T11:39:30.065Z,21.80
2023-04-23T11:41:59.264Z,21.00
2023-04-23T11:44:28.591Z,20.80
2023-04-23T11:46:58.368Z,20.20
2023-04-23T11:49:26.487Z,20.80
2023-04-23T11:51:54.417Z,20.70
2023-04-23T11:54:27.379Z,20.20
2023-04-23T11:56:55.955Z,20.50
2023-04-23T11:59:25.599Z,21.10
2023-04-23T12:01:56.830Z,21.30
2023-04-23T12:04:26.445Z,21.70
2023-04-23T12:06:57.734Z,21.20
2023-04-23T12:09:27.259Z,21.10
2023-04-23T12:11:56.761Z,20.90
2023-04-23T12:14:29.880Z,20.90
2023-04-23T12:17:09.899Z,20.60
2023-04-23T12:19:38.301Z,20.30
2023-04-23T12:22:08.308Z,20.30
2023-04-23T12:24:47.309Z,19.40
2023-04-23T12:27:20.027Z,19.20
2023-04-23T12:29:48.370Z,18.90
2023-04-23T12:32:18.967Z,18.30
2023-04-23T12:34:53.867Z,17.80
2023-04-23T12:37:25.529Z,18.10
2023-04-23T12:39:55.410Z,18.50
2023-04-23T12:42:23.329Z,16.50
2023-04-23T12:44:52.173Z,16.60
2023-04-23T12:47:21.441Z,16.70
2023-04-23T12:49:53.191Z,16.80
2023-04-23T12:52:21.620Z,17.90
2023-04-23T12:54:52.077Z,17.40
2023-04-23T12:57:23.060Z,17.80
2023-04-23T12:59:51.353Z,18.40
2023-04-23T13:02:19.413Z,18.80
2023-04-23T13:04:48.775Z,18.90
2023-04-23T13:07:16.995Z,19.10
2023-04-23T13:09:45.099Z,19.20
2023-04-23T13:12:13.253Z,19.60
2023-04-23T13:14:41.420Z,19.90
2023-04-23T13:17:09.302Z,20.10
2023-04-23T13:19:39.636Z,20.00
2023-04-23T13:22:09.097Z,20.10
2023-04-23T13:24:37.004Z,20.40
2023-04-23T13:27:05.022Z,20.60
2023-04-23T13:29:33.511Z,20.80
2023-04-23T13:32:01.831Z,21.00
2023-04-23T13:34:30.765Z,21.10
2023-04-23T13:36:59.204Z,21.00
2023-04-23T13:39:28.413Z,20.90
2023-04-23T13:42:08.954Z,20.90
2023-04-23T13:44:37.774Z,20.80
2023-04-23T13:47:05.779Z,20.70
2023-04-23T13:49:33.749Z,20.40
2023-04-23T13:52:06.330Z,20.50
2023-04-23T13:54:36.419Z,20.50
2023-04-23T13:57:04.344Z,20.60
2023-04-23T13:59:32.210Z,20.60
2023-04-23T14:02:00.163Z,20.50
2023-04-23T14:04:28.161Z,20.40
2023-04-23T14:06:56.212Z,20.50
2023-04-23T14:09:24.166Z,20.60
2023-04-23T14:11:53.425Z,20.80
2023-04-23T14:14:21.305Z,20.90
2023-04-23T14:16:49.172Z,20.90
2023-04-23T14:19:17.382Z,20.90
2023-04-23T14:21:46.613Z,20.70
2023-04-23T14:24:23.146Z,20.50
2023-04-23T14:26:51.073Z,20.40
2023-04-23T14:29:32.275Z,20.60
2023-04-23T14:32:00.155Z,20.90
2023-04-23T14:34:28.373Z,20.70
2023-04-23T14:36:56.272Z,20.70
2023-04-23T14:39:25.742Z,20.60
2023-04-23T14:41:53.959Z,20.60
2023-04-23T14:44:23.243Z,20.80
2023-04-23T14:46:52.501Z,20.70
2023-04-23T14:49:20.827Z,20.60
2023-04-23T14:51:49.982Z,20.60
2023-04-23T14:54:19.267Z,20.60
2023-04-23T14:56:47.353Z,20.70
2023-04-23T14:59:15.304Z,20.70
2023-04-23T15:01:43.380Z,20.70
2023-04-23T15:04:13.033Z,20.80
2023-04-23T15:06:41.405Z,20.90
2023-04-23T15:09:09.329Z,20.70
2023-04-23T15:11:37.885Z,20.40
2023-04-23T15:14:09.790Z,20.30
2023-04-23T15:19:10.098Z,20.00
2023-04-23T15:21:41.746Z,20.10
2023-04-23T15:24:09.598Z,19.90
2023-04-23T15:26:38.396Z,20.20
2023-04-23T15:29:08.792Z,20.00
2023-04-23T15:31:37.116Z,19.90
2023-04-23T15:34:07.091Z,19.70
2023-04-23T15:36:35.495Z,19.80
2023-04-23T15:39:04.959Z,19.50
2023-04-23T15:41:32.880Z,19.50
2023-04-23T15:44:00.765Z,20.20
2023-04-23T15:46:28.630Z,19.40
2023-04-23T15:48:56.464Z,19.40
2023-04-23T15:51:24.498Z,19.20
2023-04-23T15:53:53.241Z,19.10
2023-04-23T15:56:23.010Z,18.80
2023-04-23T15:58:51.206Z,18.80
2023-04-23T16:01:19.866Z,18.70
2023-04-23T16:03:57.984Z,18.50
2023-04-23T16:06:36.737Z,18.90
2023-04-23T16:09:07.136Z,18.60
2023-04-23T16:11:37.068Z,18.50
2023-04-23T16:14:05.610Z,18.50
2023-04-23T16:16:33.611Z,18.90
2023-04-23T16:19:01.882Z,17.70
2023-04-23T16:21:29.751Z,17.00
2023-04-23T16:23:57.825Z,16.20
2023-04-23T16:30:15.040Z,15.80
2023-04-23T16:32:42.962Z,15.60
2023-04-23T16:35:11.071Z,15.80
2023-04-23T16:37:39.268Z,15.90
2023-04-23T16:40:08.453Z,15.90
2023-04-23T16:42:36.370Z,15.40
2023-04-23T16:45:04.837Z,16.00
2023-04-23T16:47:34.349Z,15.60
2023-04-23T16:50:03.011Z,15.50
2023-04-23T16:52:30.902Z,15.70
2023-04-23T16:54:58.766Z,15.80
2023-04-23T16:57:27.080Z,15.70
2023-04-23T16:59:54.965Z,15.20
2023-04-23T17:02:22.899Z,16.00
2023-04-23T17:04:52.446Z,15.70
2023-04-23T17:07:20.405Z,15.60
2023-04-23T17:09:48.654Z,16.20
2023-04-23T17:12:16.594Z,15.90
2023-04-23T17:14:44.642Z,15.90
2023-04-23T17:17:12.585Z,16.30
2023-04-23T17:19:40.639Z,15.60
2023-04-23T17:22:10.652Z,15.10
2023-04-23T17:24:39.254Z,15.80
2023-04-23T17:27:07.188Z,16.10
2023-04-23T17:29:35.229Z,15.80
2023-04-23T17:32:04.101Z,15.40
2023-04-23T17:34:32.102Z,16.20
2023-04-23T17:37:00.001Z,15.40
2023-04-23T17:39:29.255Z,15.40
2023-04-23T17:41:57.475Z,15.10
2023-04-23T17:44:25.356Z,15.00
2023-04-23T17:46:54.983Z,15.50
2023-04-23T17:49:23.288Z,15.60
2023-04-23T17:51:51.250Z,15.10
2023-04-23T17:54:19.157Z,15.50
2023-04-23T17:56:48.392Z,14.50
2023-04-23T17:59:17.170Z,15.50
2023-04-23T18:01:45.635Z,14.40
2023-04-23T18:04:16.641Z,14.10
2023-04-23T18:06:45.531Z,14.70
2023-04-23T18:09:13.409Z,15.10
2023-04-23T18:11:41.347Z,14.80
2023-04-23T18:14:10.789Z,15.00
2023-04-23T18:16:38.710Z,14.00
2023-04-23T18:19:06.659Z,14.50
2023-04-23T18:25:21.608Z,14.00
2023-04-23T18:27:49.559Z,13.90
2023-04-23T18:30:23.059Z,14.60
2023-04-23T18:32:57.114Z,13.90
2023-04-23T18:35:25.416Z,14.70
2023-04-23T18:37:55.863Z,13.80
2023-04-23T18:40:24.047Z,15.20
2023-04-23T18:42:52.048Z,14.90
2023-04-23T18:45:21.236Z,14.10
2023-04-23T18:47:52.863Z,14.10
2023-04-23T18:50:32.425Z,14.10
2023-04-23T18:53:00.280Z,14.80
2023-04-23T18:55:28.132Z,13.70
2023-04-23T18:57:56.212Z,14.30
2023-04-23T19:00:25.566Z,13.60
2023-04-23T19:02:53.554Z,13.60
2023-04-23T19:05:21.565Z,14.10
2023-04-23T19:07:49.503Z,13.70
2023-04-23T19:10:17.470Z,14.50
2023-04-23T19:12:45.341Z,14.20
2023-04-23T19:15:15.000Z,13.60
2023-04-23T19:17:45.433Z,14.10
2023-04-23T19:20:15.471Z,13.50
2023-04-23T19:22:43.482Z,13.80
2023-04-23T19:25:11.426Z,13.90
2023-04-23T19:27:39.339Z,13.50
2023-04-23T19:30:09.989Z,13.90
2023-04-23T19:32:37.897Z,13.30
2023-04-23T19:35:07.573Z,13.10
2023-04-23T19:37:36.919Z,13.30
2023-04-23T19:40:05.613Z,13.30
2023-04-23T19:42:33.495Z,13.20
2023-04-23T19:45:01.339Z,13.40
2023-04-23T19:47:29.260Z,13.90
2023-04-23T19:49:57.118Z,13.50
2023-04-23T19:52:27.806Z,13.70
2023-04-23T19:54:55.706Z,13.30
2023-04-23T19:57:23.608Z,13.60
2023-04-23T19:59:51.513Z,13.00
2023-04-23T20:02:19.537Z,13.30
2023-04-23T20:04:48.253Z,13.10
2023-04-23T20:07:16.869Z,13.00
2023-04-23T20:09:46.212Z,13.00
2023-04-23T20:12:14.531Z,13.10
2023-04-23T20:14:42.841Z,13.00
2023-04-23T20:17:11.098Z,12.90
2023-04-23T20:19:39.716Z,12.80
2023-04-23T20:22:07.822Z,12.70
2023-04-23T20:24:38.066Z,13.00
2023-04-23T20:27:07.892Z,12.90
2023-04-23T20:29:35.785Z,12.80
2023-04-23T20:32:03.679Z,12.20
2023-04-23T20:34:31.556Z,12.20
2023-04-23T20:37:00.140Z,12.10
2023-04-23T20:39:28.056Z,12.20
2023-04-23T20:41:57.768Z,12.00
2023-04-23T20:44:27.513Z,12.40
2023-04-23T20:46:57.655Z,12.00
2023-04-23T20:49:26.214Z,11.90
2023-04-23T20:51:54.635Z,11.80
2023-04-23T20:54:22.484Z,11.90
2023-04-23T20:56:53.994Z,11.90
2023-04-23T20:59:22.133Z,11.80
2023-04-23T21:01:51.382Z,12.00
2023-04-23T21:04:19.360Z,12.30
2023-04-23T21:06:47.790Z,11.80
2023-04-23T21:09:16.262Z,12.20
2023-04-23T21:11:44.466Z,11.50
2023-04-23T21:14:12.395Z,11.70
2023-04-23T21:16:40.303Z,12.10
2023-04-23T21:19:09.496Z,12.00
2023-04-23T21:21:37.408Z,11.60
2023-04-23T21:24:06.356Z,13.20
2023-04-23T21:26:34.330Z,11.70
2023-04-23T21:29:02.210Z,11.70
2023-04-23T21:31:39.823Z,12.60
2023-04-23T21:34:09.442Z,12.50
2023-04-23T21:36:37.311Z,12.10
2023-04-23T21:39:05.428Z,11.40
2023-04-23T21:41:33.503Z,11.30
2023-04-23T21:44:01.404Z,11.10
2023-04-23T21:46:30.322Z,11.00
2023-04-23T21:48:58.569Z,10.80
2023-04-23T21:51:28.075Z,10.80
2023-04-23T21:53:55.932Z,10.60
2023-04-23T21:56:23.801Z,12.50
2023-04-23T21:58:51.790Z,10.50
2023-04-23T22:01:19.748Z,11.80
2023-04-23T22:03:47.931Z,10.50
2023-04-23T22:06:17.696Z,10.80
2023-04-23T22:08:48.081Z,10.90
2023-04-23T22:11:17.259Z,10.90
2023-04-23T22:13:45.231Z,10.60
2023-04-23T22:16:24.913Z,10.50
2023-04-23T22:18:55.173Z,10.40
2023-04-23T22:21:23.169Z,10.90
2023-04-23T22:23:53.072Z,10.40
2023-04-23T22:26:21.095Z,10.60
2023-04-23T22:28:49.009Z,12.50
2023-04-23T22:31:17.254Z,12.70
2023-04-23T22:33:45.222Z,10.70
2023-04-23T22:36:13.937Z,10.70
2023-04-23T22:38:41.883Z,12.80
2023-04-23T22:41:11.128Z,10.70
2023-04-23T22:43:39.069Z,10.90
2023-04-23T22:46:07.086Z,10.60
2023-04-23T22:48:37.597Z,11.00
2023-04-23T22:51:05.574Z,10.70
2023-04-23T22:53:33.483Z,11.10
2023-04-23T22:56:01.898Z,12.00
2023-04-23T22:58:31.227Z,10.60
2023-04-23T23:00:59.142Z,10.70
2023-04-23T23:03:27.268Z,10.90
2023-04-23T23:05:55.298Z,10.90
2023-04-23T23:08:23.181Z,11.20
2023-04-23T23:10:51.078Z,10.80
2023-04-23T23:13:18.950Z,11.00
2023-04-23T23:15:48.215Z,10.70
2023-04-23T23:18:16.233Z,10.70
2023-04-23T23:20:45.085Z,10.60
2023-04-23T23:23:12.942Z,10.90
2023-04-23T23:25:40.975Z,10.80
2023-04-23T23:28:08.897Z,10.50
2023-04-23T23:30:36.786Z,10.70
2023-04-23T23:33:06.623Z,11.40
2023-04-23T23:35:34.531Z,11.00
2023-04-23T23:38:02.370Z,10.60
2023-04-23T23:40:30.218Z,10.80
2023-04-23T23:42:58.092Z,11.00
2023-04-23T23:45:26.217Z,10.60
2023-04-23T23:47:55.043Z,11.00
2023-04-23T23:50:24.379Z,10.60
2023-04-23T23:52:52.262Z,10.50
2023-04-23T23:55:20.467Z,10.80
2023-04-23T23:57:48.317Z,10.90
